Time;durP1;ratioP1;P1;durP2;ratioP2;P2;SDS_P1;SDS_P2;PMS_P1;PMS_P2;Temp;Humidity;BMP_temperature;BMP_pressure;BME280_temperature;BME280_humidity;BME280_pressure;Samples;Min_cycle;Max_cycle;Signal;HPM_P1;HPM_P2
2021/12/22 00:00:38;;;;;;;17.00;9.45;;;0.60;93.70;;;;;;5016164;28;35990;-60
2021/12/22 00:03:07;;;;;;;19.00;9.40;;;0.60;93.70;;;;;;5016740;28;36370;-60
2021/12/22 00:05:42;;;;;;;16.40;9.55;;;0.60;93.70;;;;;;5016498;28;37430;-60
2021/12/22 00:08:12;;;;;;;18.70;9.48;;;0.60;93.70;;;;;;5015951;28;36422;-60
2021/12/22 00:10:40;;;;;;;17.83;9.48;;;0.60;93.70;;;;;;5016160;28;37594;-60
2021/12/22 00:13:09;;;;;;;18.95;9.80;;;0.60;93.70;;;;;;5016711;28;35316;-60
2021/12/22 00:15:37;;;;;;;24.38;10.63;;;0.60;93.70;;;;;;5016514;28;39340;-61
2021/12/22 00:18:05;;;;;;;19.25;9.00;;;0.60;93.60;;;;;;5016612;28;36362;-61
2021/12/22 00:20:32;;;;;;;14.88;8.38;;;0.60;93.60;;;;;;5016366;28;37220;-61
2021/12/22 00:23:00;;;;;;;17.17;9.38;;;0.70;93.60;;;;;;5015455;28;37361;-60
2021/12/22 00:25:27;;;;;;;18.33;9.20;;;0.70;93.50;;;;;;5016605;28;37502;-60
2021/12/22 00:27:55;;;;;;;15.70;9.32;;;0.70;93.70;;;;;;5016474;28;38157;-60
2021/12/22 00:30:25;;;;;;;16.42;9.10;;;0.70;93.30;;;;;;5016800;28;38345;-60
2021/12/22 00:32:55;;;;;;;20.92;9.77;;;0.70;93.40;;;;;;5016177;28;34685;-60
2021/12/22 00:35:27;;;;;;;18.48;9.18;;;0.70;93.20;;;;;;5016871;28;37612;-60
2021/12/22 00:37:54;;;;;;;20.23;9.52;;;0.60;93.20;;;;;;5018362;28;37073;-60
2021/12/22 00:40:22;;;;;;;20.35;9.05;;;0.60;93.20;;;;;;5017721;28;37664;-60
2021/12/22 00:42:49;;;;;;;17.95;8.40;;;0.60;93.20;;;;;;5018110;28;35184;-60
2021/12/22 00:45:18;;;;;;;13.98;8.40;;;0.60;93.20;;;;;;5019997;28;38428;-60
2021/12/22 00:47:46;;;;;;;14.85;8.10;;;0.60;93.00;;;;;;5018724;28;40305;-60
2021/12/22 00:50:14;;;;;;;14.23;8.57;;;0.60;92.90;;;;;;5019229;28;37744;-60
2021/12/22 00:52:41;;;;;;;14.77;8.07;;;0.60;92.90;;;;;;5018083;28;38408;-60
2021/12/22 00:55:09;;;;;;;15.68;8.95;;;0.60;92.70;;;;;;5018741;28;36243;-60
2021/12/22 00:57:38;;;;;;;18.80;9.00;;;0.60;92.70;;;;;;5018007;28;36372;-60
2021/12/22 01:00:08;;;;;;;13.65;8.23;;;0.60;92.60;;;;;;5017911;28;36271;-60
2021/12/22 01:02:36;;;;;;;16.85;8.25;;;0.60;92.50;;;;;;5018866;28;37834;-60
2021/12/22 01:05:05;;;;;;;14.20;8.45;;;0.60;92.40;;;;;;5017872;28;39090;-60
2021/12/22 01:07:32;;;;;;;17.60;8.32;;;0.60;92.40;;;;;;5018594;28;37696;-60
2021/12/22 01:10:00;;;;;;;16.33;8.50;;;-0.10;92.20;;;;;;5018678;28;36901;-60
2021/12/22 01:12:27;;;;;;;14.65;8.10;;;0.50;92.40;;;;;;5018180;28;36097;-61
2021/12/22 01:14:55;;;;;;;14.60;8.05;;;0.50;92.30;;;;;;5018832;28;38374;-61
2021/12/22 01:17:22;;;;;;;13.68;9.30;;;0.40;92.20;;;;;;5018143;28;36359;-60
2021/12/22 01:19:58;;;;;;;18.38;8.00;;;0.40;92.20;;;;;;5018840;28;36874;-61
2021/12/22 01:22:34;;;;;;;13.15;7.90;;;0.30;92.10;;;;;;5018190;28;37881;-61
2021/12/22 01:25:03;;;;;;;14.27;7.53;;;0.30;92.20;;;;;;5018478;28;37494;-61
2021/12/22 01:27:35;;;;;;;14.95;7.93;;;0.20;91.80;;;;;;5017896;28;39158;-61
2021/12/22 01:30:05;;;;;;;16.38;8.63;;;0.10;91.60;;;;;;5018594;28;36086;-60
2021/12/22 01:32:33;;;;;;;16.42;7.80;;;0.00;91.60;;;;;;5018358;28;37510;-61
2021/12/22 01:35:00;;;;;;;14.18;9.50;;;0.00;91.90;;;;;;5018653;28;37725;-61
2021/12/22 01:37:29;;;;;;;15.50;8.65;;;0.00;91.90;;;;;;5018288;28;36517;-61
2021/12/22 01:39:56;;;;;;;19.67;9.65;;;0.00;91.90;;;;;;5017757;28;38776;-60
2021/12/22 01:42:24;;;;;;;18.35;9.32;;;0.00;92.10;;;;;;5017519;28;35994;-60
2021/12/22 01:45:13;;;;;;;15.57;9.00;;;0.00;92.20;;;;;;5018110;28;36534;-61
2021/12/22 01:50:32;;;;;;;17.05;9.00;;;-0.10;92.10;;;;;;5018080;28;38455;-60
2021/12/22 01:53:07;;;;;;;16.27;8.98;;;-0.10;92.00;;;;;;5017822;28;39151;-60
2021/12/22 01:55:38;;;;;;;20.40;8.25;;;-0.10;91.90;;;;;;5018269;28;37570;-61
2021/12/22 01:58:11;;;;;;;16.60;9.15;;;-0.10;91.90;;;;;;5016412;28;40503;-60
2021/12/22 02:00:39;;;;;;;16.97;9.53;;;-0.10;91.90;;;;;;5015953;28;36202;-60
2021/12/22 02:03:06;;;;;;;21.75;9.68;;;-0.20;91.90;;;;;;5017485;28;38355;-60
2021/12/22 02:05:34;;;;;;;15.75;8.88;;;-0.20;92.00;;;;;;5015595;28;37887;-60
2021/12/22 02:08:07;;;;;;;18.15;9.23;;;-0.30;92.20;;;;;;5017472;28;36148;-61
2021/12/22 02:10:45;;;;;;;14.75;9.05;;;-0.30;92.30;;;;;;5015611;28;37179;-60
2021/12/22 02:13:16;;;;;;;17.50;8.20;;;-0.30;92.30;;;;;;5016759;28;36890;-61
2021/12/22 02:15:43;;;;;;;16.63;8.90;;;-0.30;92.50;;;;;;5018143;28;37448;-61
2021/12/22 02:18:16;;;;;;;17.38;9.70;;;-0.30;92.20;;;;;;5016706;28;37036;-60
2021/12/22 02:20:45;;;;;;;15.20;8.88;;;-0.30;92.20;;;;;;5016388;28;38743;-60
2021/12/22 02:23:12;;;;;;;15.50;8.73;;;-0.30;92.40;;;;;;5017872;28;36201;-60
2021/12/22 02:25:46;;;;;;;16.90;8.93;;;-0.30;92.40;;;;;;5016576;28;37647;-61
2021/12/22 02:28:19;;;;;;;;;;;-0.20;92.30;;;;;;5016675;28;36485;-61
2021/12/22 02:30:47;;;;;;;17.67;8.60;;;-0.10;92.40;;;;;;5017470;28;37013;-60
2021/12/22 02:33:26;;;;;;;15.55;9.52;;;-0.10;92.20;;;;;;5016538;28;37053;-61
2021/12/22 02:36:08;;;;;;;18.90;8.77;;;-0.20;92.10;;;;;;5017117;28;38458;-61
2021/12/22 02:38:38;;;;;;;14.60;8.63;;;0.20;92.10;;;;;;5016265;28;39145;-61
2021/12/22 02:41:08;;;;;;;17.63;8.30;;;-0.20;92.00;;;;;;5016646;28;37541;-61
2021/12/22 02:43:43;;;;;;;15.88;8.40;;;-0.20;92.00;;;;;;5017448;28;36533;-61
2021/12/22 02:46:11;;;;;;;14.48;9.05;;;-0.20;92.00;;;;;;5016421;28;37948;-61
2021/12/22 02:48:38;;;;;;;13.95;8.57;;;-0.20;92.10;;;;;;5016814;28;37600;-61
2021/12/22 02:51:07;;;;;;;19.33;8.85;;;-0.20;92.00;;;;;;5016320;28;36047;-61
2021/12/22 02:53:42;;;;;;;20.38;8.75;;;-0.20;91.80;;;;;;5015181;28;35403;-61
2021/12/22 02:56:25;;;;;;;16.33;9.57;;;-0.30;91.80;;;;;;5016696;28;38095;-61
2021/12/22 02:59:03;;;;;;;16.70;8.73;;;-0.30;91.80;;;;;;5016355;28;37774;-61
2021/12/22 03:04:43;;;;;;;15.88;8.40;;;-0.40;91.70;;;;;;4992943;28;37008;-61
2021/12/22 03:07:15;;;;;;;16.13;8.48;;;-0.30;91.80;;;;;;4992339;28;38522;-61
2021/12/22 03:09:43;;;;;;;16.60;8.88;;;-0.30;91.70;;;;;;5003916;28;37757;-61
2021/12/22 03:12:13;;;;;;;18.98;8.93;;;-0.40;91.70;;;;;;5015865;28;37463;-61
2021/12/22 03:14:41;;;;;;;18.52;8.05;;;-0.40;91.70;;;;;;5017222;28;38997;-61
2021/12/22 03:17:08;;;;;;;15.65;8.40;;;-0.40;91.60;;;;;;5016329;28;37866;-61
2021/12/22 03:19:36;;;;;;;18.33;9.57;;;-0.50;91.60;;;;;;5016309;28;39263;-61
2021/12/22 03:22:08;;;;;;;19.45;9.38;;;-0.50;91.70;;;;;;5016046;28;38134;-61
2021/12/22 03:24:38;;;;;;;14.20;9.00;;;-0.50;91.90;;;;;;5016784;28;35297;-61
2021/12/22 03:27:07;;;;;;;19.13;10.02;;;-0.50;92.10;;;;;;5015554;28;38725;-61
2021/12/22 03:29:38;;;;;;;15.10;8.50;;;-0.50;92.10;;;;;;5016456;28;37602;-60
2021/12/22 03:32:06;;;;;;;17.38;8.55;;;-0.40;92.10;;;;;;5016505;28;37559;-61
2021/12/22 03:34:34;;;;;;;15.35;8.35;;;-0.40;92.10;;;;;;5015940;28;36710;-61
2021/12/22 03:37:02;;;;;;;16.67;8.65;;;-0.40;91.90;;;;;;5016158;28;37779;-61
2021/12/22 03:39:29;;;;;;;18.60;9.82;;;-0.40;92.10;;;;;;5015654;28;36395;-61
2021/12/22 03:41:58;;;;;;;16.70;9.02;;;-0.30;92.00;;;;;;5016880;28;36696;-61
2021/12/22 03:44:25;;;;;;;17.90;10.18;;;-0.30;92.00;;;;;;5016836;28;36101;-61
2021/12/22 03:46:52;;;;;;;13.85;8.90;;;-0.30;91.90;;;;;;5015869;28;38340;-61
2021/12/22 03:49:20;;;;;;;16.35;9.05;;;-0.40;91.90;;;;;;5015437;28;37800;-61
2021/12/22 03:51:47;;;;;;;16.40;9.60;;;-0.40;92.00;;;;;;5014760;28;37024;-61
2021/12/22 03:54:15;;;;;;;15.82;8.55;;;-0.40;92.00;;;;;;5015760;28;38240;-61
2021/12/22 03:56:42;;;;;;;16.75;9.13;;;-0.40;91.90;;;;;;5016392;28;36329;-61
2021/12/22 03:59:11;;;;;;;14.30;8.45;;;-0.40;91.70;;;;;;5015983;28;37438;-61
2021/12/22 04:01:38;;;;;;;15.43;8.18;;;-0.40;91.30;;;;;;5014603;28;37627;-61
2021/12/22 04:04:11;;;;;;;15.98;8.60;;;-0.60;91.10;;;;;;5016001;28;37448;-61
2021/12/22 04:06:41;;;;;;;14.65;8.07;;;-0.60;91.10;;;;;;5015197;28;36201;-61
2021/12/22 04:09:09;;;;;;;19.05;9.05;;;-0.70;90.90;;;;;;5015209;28;37929;-61
2021/12/22 04:11:36;;;;;;;13.10;8.00;;;-0.80;90.90;;;;;;5015779;28;37904;-61
2021/12/22 04:14:04;;;;;;;14.35;7.68;;;-0.90;91.00;;;;;;5019064;28;37738;-61
2021/12/22 04:16:33;;;;;;;16.40;9.52;;;-0.90;91.10;;;;;;5018473;28;37864;-61
2021/12/22 04:19:01;;;;;;;16.27;9.27;;;-0.90;91.10;;;;;;5017952;28;38227;-61
2021/12/22 04:21:29;;;;;;;13.13;8.50;;;-0.90;91.20;;;;;;5019271;28;38125;-61
2021/12/22 04:23:56;;;;;;;15.20;8.23;;;-0.90;91.20;;;;;;5019856;28;38451;-61
2021/12/22 04:26:26;;;;;;;16.00;8.98;;;-0.90;91.20;;;;;;5019232;28;35887;-61
2021/12/22 04:28:53;;;;;;;15.13;8.43;;;-0.80;91.30;;;;;;5019575;28;38595;-61
2021/12/22 04:31:21;;;;;;;17.58;9.48;;;-0.80;91.40;;;;;;5018816;28;37765;-61
2021/12/22 04:33:49;;;;;;;16.17;8.93;;;-0.80;91.50;;;;;;5018817;28;36980;-61
2021/12/22 04:36:17;;;;;;;19.00;9.45;;;-0.70;91.50;;;;;;5019758;28;36966;-61
2021/12/22 04:38:44;;;;;;;17.65;9.80;;;-0.80;91.50;;;;;;5019068;28;37696;-61
2021/12/22 04:41:11;;;;;;;18.58;9.18;;;-0.70;91.70;;;;;;5019002;28;37536;-61
2021/12/22 04:43:39;;;;;;;18.27;10.13;;;-0.80;91.80;;;;;;5018199;28;37027;-61
2021/12/22 04:46:06;;;;;;;16.38;9.80;;;-0.90;92.10;;;;;;5018431;28;38561;-61
2021/12/22 04:48:35;;;;;;;20.02;10.68;;;-1.00;92.20;;;;;;5018714;28;35452;-61
2021/12/22 04:51:13;;;;;;;17.73;10.07;;;-1.00;92.40;;;;;;5019896;28;36032;-61
2021/12/22 04:53:50;;;;;;;18.88;10.10;;;-1.00;92.50;;;;;;5018145;28;35406;-61
2021/12/22 04:56:18;;;;;;;17.58;9.77;;;-1.00;92.60;;;;;;5019277;28;37648;-61
2021/12/22 04:58:45;;;;;;;19.55;9.70;;;-0.90;92.60;;;;;;5019438;28;37773;-61
2021/12/22 05:01:13;;;;;;;18.77;9.90;;;-0.90;92.50;;;;;;5018106;28;37888;-61
2021/12/22 05:03:41;;;;;;;21.25;10.43;;;-0.90;92.40;;;;;;5018355;28;34327;-61
2021/12/22 05:06:10;;;;;;;14.88;9.88;;;-0.90;92.50;;;;;;5018335;28;36365;-61
2021/12/22 05:08:38;;;;;;;19.75;11.07;;;-0.90;92.30;;;;;;5018521;28;37719;-61
2021/12/22 05:11:05;;;;;;;14.85;9.30;;;-0.90;92.30;;;;;;5017801;28;36896;-61
2021/12/22 05:13:34;;;;;;;21.10;10.20;;;-0.90;92.30;;;;;;5018206;28;36861;-61
2021/12/22 05:16:04;;;;;;;17.98;10.45;;;-1.00;92.40;;;;;;5018465;28;38580;-61
2021/12/22 05:18:49;;;;;;;19.00;8.82;;;-1.10;92.40;;;;;;5017846;28;36524;-61
2021/12/22 05:21:21;;;;;;;19.05;9.70;;;-1.10;92.50;;;;;;5017664;28;37420;-61
2021/12/22 05:23:48;;;;;;;16.02;9.73;;;-1.10;92.50;;;;;;5019190;28;36890;-61
2021/12/22 05:26:16;;;;;;;18.08;9.48;;;-1.10;92.50;;;;;;5017681;28;38062;-61
2021/12/22 05:28:43;;;;;;;19.90;8.70;;;-1.00;92.60;;;;;;5017776;28;36344;-61
2021/12/22 05:31:11;;;;;;;20.02;10.13;;;-1.00;92.50;;;;;;5019221;28;37637;-61
2021/12/22 05:33:38;;;;;;;18.33;9.68;;;-1.00;92.30;;;;;;5017167;28;37094;-61
2021/12/22 05:36:06;;;;;;;19.52;10.02;;;-1.00;92.30;;;;;;5018891;28;36301;-61
2021/12/22 05:38:35;;;;;;;17.60;10.05;;;-1.20;92.30;;;;;;5017577;28;37254;-61
2021/12/22 05:41:02;;;;;;;19.45;11.48;;;-1.10;92.40;;;;;;5017985;28;36238;-61
2021/12/22 05:43:30;;;;;;;19.60;10.82;;;-1.20;92.60;;;;;;5018663;28;36780;-61
2021/12/22 05:45:57;;;;;;;19.05;10.07;;;-1.20;92.40;;;;;;5018014;28;37480;-61
2021/12/22 05:48:24;;;;;;;19.05;9.73;;;-1.30;92.40;;;;;;5017084;28;37875;-61
2021/12/22 05:50:57;;;;;;;18.75;9.73;;;-1.30;92.50;;;;;;5017946;28;37379;-61
2021/12/22 05:53:25;;;;;;;20.98;10.18;;;-1.30;92.50;;;;;;5015663;28;38016;-61
2021/12/22 05:55:55;;;;;;;20.77;10.40;;;-1.30;92.50;;;;;;5017180;28;38560;-61
2021/12/22 05:58:22;;;;;;;18.10;10.30;;;-1.20;92.50;;;;;;5017714;28;37576;-61
2021/12/22 06:00:51;;;;;;;18.08;9.38;;;-1.30;92.40;;;;;;5015471;28;37479;-61
2021/12/22 06:03:18;;;;;;;17.98;9.02;;;-1.30;92.50;;;;;;5017526;28;36404;-61
2021/12/22 06:05:45;;;;;;;16.30;10.23;;;-1.20;92.60;;;;;;5016009;28;37786;-61
2021/12/22 06:08:13;;;;;;;18.42;9.60;;;-1.20;92.50;;;;;;5017566;28;38079;-61
2021/12/22 06:10:40;;;;;;;18.02;9.27;;;-1.10;92.30;;;;;;5016473;28;38025;-61
2021/12/22 06:13:10;;;;;;;18.17;9.68;;;-1.10;92.10;;;;;;5014275;28;37445;-61
2021/12/22 06:15:40;;;;;;;19.30;9.32;;;-1.00;92.10;;;;;;5016608;28;37270;-61
2021/12/22 06:18:08;;;;;;;20.88;10.40;;;-1.10;92.10;;;;;;5017984;28;38230;-61
2021/12/22 06:20:36;;;;;;;17.85;10.57;;;-1.20;91.90;;;;;;5015779;28;37857;-61
2021/12/22 06:23:04;;;;;;;20.52;9.93;;;-1.30;92.00;;;;;;5017596;28;35531;-61
2021/12/22 06:25:31;;;;;;;18.00;10.52;;;-1.30;92.20;;;;;;5017380;28;36814;-61
2021/12/22 06:27:58;;;;;;;17.05;9.68;;;-1.30;92.20;;;;;;5016659;28;37903;-61
2021/12/22 06:30:27;;;;;;;17.98;9.75;;;-1.30;92.20;;;;;;5015321;28;37109;-61
2021/12/22 06:32:54;;;;;;;21.40;10.07;;;-1.30;92.20;;;;;;5016316;28;35345;-61
2021/12/22 06:35:22;;;;;;;15.93;8.98;;;-1.40;92.20;;;;;;5016182;28;37637;-61
2021/12/22 06:37:51;;;;;;;18.15;9.82;;;-1.40;92.30;;;;;;5016344;28;38916;-61
2021/12/22 06:40:19;;;;;;;15.73;9.75;;;-1.30;92.40;;;;;;5014429;28;41476;-61
2021/12/22 06:42:47;;;;;;;17.05;9.52;;;-1.30;92.40;;;;;;5016859;28;36399;-61
2021/12/22 06:45:15;;;;;;;16.85;9.95;;;-1.30;92.40;;;;;;5012081;28;37452;-61
2021/12/22 06:47:43;;;;;;;17.33;9.52;;;-1.30;92.30;;;;;;5016290;28;36415;-61
2021/12/22 06:50:11;;;;;;;22.52;10.27;;;-1.30;92.30;;;;;;5016193;28;36063;-61
2021/12/22 06:52:39;;;;;;;16.75;9.82;;;-1.30;92.30;;;;;;5015615;28;37296;-61
2021/12/22 06:55:06;;;;;;;28.52;10.27;;;-1.30;92.30;;;;;;5014990;28;37850;-61
2021/12/22 06:57:34;;;;;;;17.50;9.63;;;-1.20;92.30;;;;;;5015757;28;38289;-61
2021/12/22 07:00:03;;;;;;;19.02;9.77;;;-1.10;92.20;;;;;;5014926;28;36279;-61
2021/12/22 07:02:35;;;;;;;16.25;8.23;;;-1.00;92.00;;;;;;5016121;28;37846;-61
2021/12/22 07:05:05;;;;;;;18.40;9.60;;;-1.00;91.90;;;;;;5013794;28;37864;-61
2021/12/22 07:07:32;;;;;;;22.20;10.00;;;-0.90;91.70;;;;;;5016024;28;39920;-61
2021/12/22 07:10:00;;;;;;;16.63;9.65;;;-0.90;91.50;;;;;;5015991;28;38313;-61
2021/12/22 07:12:27;;;;;;;18.15;9.85;;;-1.00;91.40;;;;;;5015674;28;35273;-61
2021/12/22 07:14:54;;;;;;;18.13;9.10;;;-0.90;91.40;;;;;;5015761;28;39213;-61
2021/12/22 07:17:22;;;;;;;16.50;9.93;;;-0.90;91.20;;;;;;5015564;28;38006;-61
2021/12/22 07:19:50;;;;;;;20.92;10.82;;;-0.90;91.30;;;;;;5016287;28;37555;-61
2021/12/22 07:22:19;;;;;;;17.60;9.45;;;-1.00;91.30;;;;;;5015864;28;37126;-61
2021/12/22 07:24:46;;;;;;;22.33;9.90;;;-0.90;91.40;;;;;;5015135;28;37214;-61
2021/12/22 07:27:13;;;;;;;18.17;8.85;;;-0.90;91.60;;;;;;5016165;28;38972;-61
2021/12/22 07:29:41;;;;;;;16.80;9.45;;;-0.90;91.30;;;;;;5015448;28;37455;-61
2021/12/22 07:32:09;;;;;;;16.27;9.63;;;-0.90;91.30;;;;;;5014883;28;36251;-61
2021/12/22 07:34:43;;;;;;;19.40;10.15;;;-0.80;91.30;;;;;;5016302;28;36173;-61
2021/12/22 07:37:19;;;;;;;15.38;8.77;;;-0.80;91.20;;;;;;5015190;28;37549;-61
2021/12/22 07:39:47;;;;;;;19.60;9.90;;;-0.80;91.10;;;;;;5015728;28;37080;-61
2021/12/22 07:42:15;;;;;;;18.73;9.82;;;-0.80;91.00;;;;;;5014521;28;35361;-61
2021/12/22 07:44:42;;;;;;;17.50;9.45;;;-0.90;91.00;;;;;;5014672;28;37169;-61
2021/12/22 07:47:10;;;;;;;16.80;9.70;;;-0.90;91.10;;;;;;5016727;28;37848;-61
2021/12/22 07:49:37;;;;;;;24.25;10.52;;;-0.90;91.40;;;;;;5019127;28;37017;-61
2021/12/22 07:52:05;;;;;;;19.98;9.80;;;-0.90;91.20;;;;;;5018765;28;36764;-61
2021/12/22 07:54:32;;;;;;;19.40;9.75;;;-1.00;91.30;;;;;;5018749;28;37289;-61
2021/12/22 07:57:01;;;;;;;19.10;10.57;;;-1.00;91.40;;;;;;5016963;28;36443;-61
2021/12/22 07:59:28;;;;;;;21.48;11.23;;;-1.00;91.50;;;;;;5016936;28;37433;-62
2021/12/22 08:01:56;;;;;;;23.67;10.40;;;-1.00;91.60;;;;;;5015777;28;39321;-61
2021/12/22 08:04:24;;;;;;;24.52;10.38;;;-1.00;91.60;;;;;;5015978;28;36688;-61
2021/12/22 08:06:51;;;;;;;20.02;10.15;;;-1.00;91.70;;;;;;5017913;28;38702;-61
2021/12/22 08:09:25;;;;;;;20.02;10.48;;;-1.00;91.80;;;;;;5017647;28;37135;-61
2021/12/22 08:11:53;;;;;;;19.95;10.00;;;-1.00;91.90;;;;;;5018800;28;36323;-61
2021/12/22 08:14:23;;;;;;;21.77;10.93;;;-1.00;91.90;;;;;;5018814;28;38113;-61
2021/12/22 08:16:51;;;;;;;21.23;10.05;;;-1.00;92.00;;;;;;5017202;28;38233;-61
2021/12/22 08:19:18;;;;;;;22.70;11.35;;;-0.90;92.10;;;;;;5017909;28;38634;-61
2021/12/22 08:21:46;;;;;;;20.45;10.25;;;-0.90;92.20;;;;;;5018115;28;37262;-61
2021/12/22 08:24:14;;;;;;;24.90;10.70;;;-0.80;92.20;;;;;;5018980;28;36136;-62
2021/12/22 08:26:41;;;;;;;22.92;10.70;;;-0.80;92.10;;;;;;5019222;28;38320;-62
2021/12/22 08:29:08;;;;;;;23.33;10.68;;;-0.70;92.00;;;;;;5018976;28;38693;-62
2021/12/22 08:31:37;;;;;;;20.25;11.20;;;-0.60;91.90;;;;;;5018946;28;35770;-62
2021/12/22 08:34:06;;;;;;;21.30;9.85;;;-0.60;91.70;;;;;;5019742;28;38244;-62
2021/12/22 08:39:18;;;;;;;19.23;9.75;;;-0.40;91.70;;;;;;5019065;28;39117;-62
2021/12/22 08:41:47;;;;;;;18.85;10.38;;;-0.30;91.60;;;;;;5017434;28;35570;-62
2021/12/22 08:44:18;;;;;;;19.42;9.48;;;-0.40;91.50;;;;;;5019944;28;39319;-62
2021/12/22 08:46:50;;;;;;;17.30;9.70;;;-0.30;91.60;;;;;;5017905;28;38513;-62
2021/12/22 08:49:18;;;;;;;16.10;9.68;;;-0.30;91.70;;;;;;5017468;28;37872;-62
2021/12/22 08:51:46;;;;;;;19.45;10.15;;;-0.20;91.80;;;;;;5018453;28;37266;-62
2021/12/22 08:54:14;;;;;;;17.52;9.38;;;-0.10;91.70;;;;;;5015556;28;37316;-62
2021/12/22 08:56:41;;;;;;;26.50;9.63;;;0.00;91.60;;;;;;5015836;28;38170;-62
2021/12/22 08:59:10;;;;;;;19.48;10.07;;;0.00;91.50;;;;;;5015519;28;38423;-62
2021/12/22 09:01:38;;;;;;;19.83;10.20;;;0.00;91.40;;;;;;5016407;28;36429;-62
2021/12/22 09:04:07;;;;;;;18.27;10.15;;;0.10;91.50;;;;;;5017524;28;38820;-61
2021/12/22 09:06:34;;;;;;;20.10;9.27;;;0.10;91.40;;;;;;5014685;28;37979;-62
2021/12/22 09:09:02;;;;;;;20.50;9.75;;;0.10;91.40;;;;;;5015874;28;36283;-62
2021/12/22 09:11:30;;;;;;;21.75;10.63;;;0.20;91.40;;;;;;5018061;28;36638;-62
2021/12/22 09:13:57;;;;;;;19.85;10.00;;;0.10;91.40;;;;;;5017007;28;37634;-62
2021/12/22 09:16:26;;;;;;;19.55;9.70;;;0.10;91.30;;;;;;5017101;28;38023;-62
2021/12/22 09:18:53;;;;;;;21.20;9.35;;;0.10;91.40;;;;;;5017380;28;37272;-62
2021/12/22 09:21:22;;;;;;;19.60;9.65;;;0.20;91.40;;;;;;5016812;28;36443;-62
2021/12/22 09:23:49;;;;;;;16.15;8.82;;;0.30;91.30;;;;;;5016571;28;36201;-62
2021/12/22 09:26:17;;;;;;;15.68;9.43;;;0.40;91.20;;;;;;5017972;28;37907;-62
2021/12/22 09:28:44;;;;;;;21.58;10.13;;;0.50;91.00;;;;;;5017964;28;37484;-62
2021/12/22 09:31:12;;;;;;;19.80;10.45;;;0.50;90.90;;;;;;5015947;28;35380;-62
2021/12/22 09:33:40;;;;;;;20.33;9.70;;;0.60;90.90;;;;;;5018721;28;39061;-62
2021/12/22 09:36:10;;;;;;;15.82;9.75;;;0.80;90.80;;;;;;5018410;28;37725;-62
2021/12/22 09:38:39;;;;;;;17.73;8.93;;;1.00;90.70;;;;;;5017639;28;36083;-62
2021/12/22 09:41:07;;;;;;;24.52;10.85;;;1.20;90.50;;;;;;5015946;28;36376;-62
2021/12/22 09:43:34;;;;;;;24.30;10.15;;;1.30;90.20;;;;;;5018145;28;36170;-61
2021/12/22 09:46:06;;;;;;;17.17;9.45;;;1.40;90.00;;;;;;5017766;28;38712;-62
2021/12/22 09:48:47;;;;;;;21.10;11.10;;;1.60;90.00;;;;;;5018589;28;37335;-61
2021/12/22 09:54:05;;;;;;;22.00;10.52;;;1.90;88.70;;;;;;5017249;28;36665;-61
2021/12/22 09:56:33;;;;;;;19.10;10.50;;;2.00;87.80;;;;;;5016525;28;38094;-61
2021/12/22 09:59:00;;;;;;;18.42;10.02;;;2.00;88.00;;;;;;5016834;28;37682;-61
2021/12/22 10:01:28;;;;;;;18.20;9.45;;;1.80;88.00;;;;;;5015336;28;37752;-61
2021/12/22 10:03:59;;;;;;;20.50;10.15;;;1.80;88.50;;;;;;5016922;28;36274;-61
2021/12/22 10:06:27;;;;;;;19.88;10.73;;;1.80;88.40;;;;;;4995573;28;38297;-61
2021/12/22 10:08:57;;;;;;;17.48;9.27;;;1.70;88.60;;;;;;4996628;28;38903;-61
2021/12/22 10:11:26;;;;;;;16.88;9.23;;;1.80;88.80;;;;;;4994282;28;37494;-61
2021/12/22 10:13:54;;;;;;;17.17;9.70;;;1.90;88.50;;;;;;4994133;28;37703;-61
2021/12/22 10:16:25;;;;;;;17.38;9.73;;;1.90;88.70;;;;;;4996408;28;38853;-61
2021/12/22 10:19:05;;;;;;;22.33;10.73;;;1.90;88.60;;;;;;4995845;28;38407;-61
2021/12/22 10:21:36;;;;;;;17.90;10.00;;;2.00;88.50;;;;;;4997236;28;37062;-61
2021/12/22 10:24:07;;;;;;;19.98;9.63;;;2.00;88.70;;;;;;4997605;28;38045;-61
2021/12/22 10:26:36;;;;;;;18.38;9.77;;;1.90;88.20;;;;;;4997276;28;37514;-61
2021/12/22 10:29:05;;;;;;;20.88;10.73;;;1.90;88.60;;;;;;4994707;28;37311;-61
2021/12/22 10:31:36;;;;;;;16.73;8.93;;;1.90;88.50;;;;;;4994926;28;38669;-61
2021/12/22 10:34:08;;;;;;;20.77;10.15;;;2.00;88.40;;;;;;4996617;28;38655;-61
2021/12/22 10:36:47;;;;;;;18.95;9.30;;;2.00;88.30;;;;;;4995409;28;37748;-61
2021/12/22 10:39:21;;;;;;;19.55;9.40;;;2.20;87.80;;;;;;4996112;28;38851;-61
2021/12/22 10:41:50;;;;;;;17.95;10.07;;;2.20;88.20;;;;;;4996472;28;36499;-61
2021/12/22 10:44:18;;;;;;;15.43;9.30;;;2.10;88.00;;;;;;4996665;28;37415;-61
2021/12/22 10:46:46;;;;;;;15.55;8.63;;;2.10;88.30;;;;;;4997911;28;36680;-61
2021/12/22 10:49:17;;;;;;;16.42;8.70;;;2.10;88.30;;;;;;4996161;28;36473;-61
2021/12/22 10:51:47;;;;;;;18.20;9.43;;;2.10;87.50;;;;;;4997839;28;36010;-61
2021/12/22 10:54:17;;;;;;;17.45;9.15;;;2.00;87.70;;;;;;4997478;28;37356;-61
2021/12/22 10:56:47;;;;;;;15.57;8.75;;;2.10;88.10;;;;;;4994487;28;36461;-61
2021/12/22 10:59:18;;;;;;;16.67;9.43;;;2.00;88.00;;;;;;4993309;28;38326;-61
2021/12/22 11:02:05;;;;;;;22.63;10.52;;;2.10;87.70;;;;;;4992483;28;36570;-61
2021/12/22 11:04:34;;;;;;;15.70;8.98;;;2.10;87.90;;;;;;4996715;28;38686;-61
2021/12/22 11:07:09;;;;;;;17.45;9.27;;;1.90;87.90;;;;;;5013584;28;37445;-61
2021/12/22 11:09:37;;;;;;;16.67;8.50;;;2.00;87.90;;;;;;5016183;28;37597;-61
2021/12/22 11:12:06;;;;;;;16.27;9.20;;;1.90;87.90;;;;;;5014282;28;37188;-61
2021/12/22 11:14:39;;;;;;;20.25;9.50;;;1.80;87.70;;;;;;5016883;28;36994;-61
2021/12/22 11:17:09;;;;;;;17.83;8.65;;;1.80;88.80;;;;;;5015172;28;38277;-61
2021/12/22 11:19:39;;;;;;;17.50;9.20;;;1.80;88.50;;;;;;5016248;28;37515;-61
2021/12/22 11:22:12;;;;;;;20.48;9.20;;;1.70;88.40;;;;;;5015029;28;35128;-61
2021/12/22 11:24:41;;;;;;;15.75;9.93;;;1.80;89.00;;;;;;5015714;28;38371;-61
2021/12/22 11:27:11;;;;;;;20.02;9.25;;;1.80;88.80;;;;;;5015132;28;36423;-61
2021/12/22 11:29:42;;;;;;;16.50;9.32;;;1.80;88.50;;;;;;5015563;28;39332;-61
2021/12/22 11:32:10;;;;;;;16.75;8.32;;;1.90;88.60;;;;;;5013882;28;36419;-61
2021/12/22 11:34:39;;;;;;;14.98;8.80;;;2.00;88.40;;;;;;5015458;28;36385;-61
2021/12/22 11:37:09;;;;;;;17.50;9.15;;;2.00;88.40;;;;;;5014916;28;38539;-61
2021/12/22 11:39:36;;;;;;;18.45;10.40;;;2.00;88.30;;;;;;5014695;28;37590;-61
2021/12/22 11:42:07;;;;;;;18.02;9.07;;;2.10;88.20;;;;;;5015258;28;36762;-61
2021/12/22 11:44:36;;;;;;;16.70;8.75;;;2.80;88.00;;;;;;5014689;28;39453;-61
2021/12/22 11:47:08;;;;;;;19.33;9.25;;;2.30;87.10;;;;;;5015549;28;37558;-61
2021/12/22 11:49:37;;;;;;;18.95;10.25;;;2.30;86.80;;;;;;5014664;28;38301;-61
2021/12/22 11:52:29;;;;;;;14.30;8.60;;;2.30;86.30;;;;;;5015052;28;36661;-61
2021/12/22 11:55:07;;;;;;;18.15;8.15;;;2.30;86.60;;;;;;5015724;28;37561;-61
2021/12/22 11:57:35;;;;;;;17.40;9.02;;;2.30;86.60;;;;;;5014765;28;37843;-60
2021/12/22 12:00:24;;;;;;;14.85;8.27;;;2.30;86.50;;;;;;5015811;28;37869;-60
2021/12/22 12:02:53;;;;;;;19.50;9.65;;;2.40;86.10;;;;;;5013956;28;35069;-61
2021/12/22 12:05:23;;;;;;;13.95;7.97;;;2.20;86.40;;;;;;5013986;28;37785;-61
2021/12/22 12:07:53;;;;;;;15.77;8.45;;;2.40;86.20;;;;;;5015144;28;37582;-61
2021/12/22 12:10:45;;;;;;;15.15;8.25;;;2.40;86.20;;;;;;5014112;28;38409;-61
2021/12/22 12:13:44;;;;;;;16.83;8.57;;;2.20;86.00;;;;;;5015333;28;39013;-61
2021/12/22 12:22:10;;;;;;;18.70;8.82;;;2.20;87.30;;;;;;5016428;28;39067;-60
2021/12/22 12:24:50;;;;;;;15.95;8.90;;;2.20;87.00;;;;;;5015669;28;36087;-61
2021/12/22 12:27:53;;;;;;;15.63;8.43;;;2.20;87.40;;;;;;5016754;28;38093;-61
2021/12/22 12:30:24;;;;;;;18.35;8.93;;;2.10;87.00;;;;;;5014608;28;38025;-61
2021/12/22 12:33:25;;;;;;;16.17;9.15;;;2.10;87.40;;;;;;5015614;28;39052;-61
2021/12/22 12:36:06;;;;;;;17.20;9.13;;;2.20;87.50;;;;;;5020117;28;37172;-61
2021/12/22 12:38:49;;;;;;;20.70;9.50;;;2.20;87.80;;;;;;5017214;28;38546;-61
2021/12/22 12:41:22;;;;;;;14.68;8.52;;;2.10;88.10;;;;;;5018123;28;39071;-61
2021/12/22 12:44:01;;;;;;;16.20;8.93;;;2.10;88.10;;;;;;5018471;28;37348;-61
2021/12/22 12:46:49;;;;;;;17.33;8.85;;;2.20;87.90;;;;;;5019284;28;36953;-61
2021/12/22 12:49:33;;;;;;;18.42;9.68;;;2.20;88.30;;;;;;5019335;28;37316;-61
2021/12/22 12:52:10;;;;;;;15.98;8.52;;;2.20;87.90;;;;;;5017573;28;38506;-61
2021/12/22 12:54:40;;;;;;;16.98;9.70;;;2.30;87.90;;;;;;5018633;28;38004;-61
2021/12/22 12:57:24;;;;;;;19.40;9.05;;;2.20;87.80;;;;;;5018982;28;37336;-61
2021/12/22 12:59:55;;;;;;;14.68;8.23;;;2.00;88.30;;;;;;5018026;28;37807;-61
2021/12/22 13:02:25;;;;;;;16.17;8.27;;;2.00;88.50;;;;;;5017928;28;39585;-61
2021/12/22 13:04:57;;;;;;;19.27;9.50;;;2.10;88.70;;;;;;5018070;28;36759;-61
2021/12/22 13:07:26;;;;;;;14.90;7.82;;;2.10;88.70;;;;;;5019287;28;35128;-61
2021/12/22 13:10:00;;;;;;;14.88;8.38;;;2.10;88.60;;;;;;5017549;28;38757;-61